createdAt,value
2022-08-08T00:00:53.943Z,21.60
2022-08-08T00:03:28.450Z,21.60
2022-08-08T00:06:35.103Z,21.50
2022-08-08T00:09:21.154Z,21.50
2022-08-08T00:12:07.779Z,21.50
2022-08-08T00:14:59.818Z,21.50
2022-08-08T00:18:03.072Z,21.50
2022-08-08T00:20:52.080Z,21.40
2022-08-08T00:23:40.661Z,21.40
2022-08-08T00:26:12.892Z,21.40
2022-08-08T00:28:48.664Z,21.40
2022-08-08T00:32:28.339Z,21.40
2022-08-08T00:34:50.452Z,21.30
2022-08-08T00:37:48.149Z,21.30
2022-08-08T00:41:12.668Z,21.20
2022-08-08T00:44:11.263Z,21.20
2022-08-08T00:47:23.022Z,21.30
2022-08-08T00:50:11.637Z,21.20
2022-08-08T00:52:54.356Z,21.10
2022-08-08T00:55:53.411Z,21.10
2022-08-08T00:58:43.675Z,21.10
2022-08-08T01:01:37.609Z,21.10
2022-08-08T01:04:37.256Z,21.00
2022-08-08T01:07:55.644Z,21.00
2022-08-08T01:11:07.878Z,20.90
2022-08-08T01:13:58.712Z,20.90
2022-08-08T01:16:48.255Z,20.90
2022-08-08T01:19:52.469Z,20.90
2022-08-08T01:22:23.583Z,20.80
2022-08-08T01:25:17.640Z,20.80
2022-08-08T01:28:02.332Z,20.80
2022-08-08T01:30:55.503Z,20.90
2022-08-08T01:34:00.170Z,20.90
2022-08-08T01:36:52.073Z,20.80
2022-08-08T01:39:48.996Z,20.80
2022-08-08T01:42:35.553Z,20.80
2022-08-08T01:45:30.607Z,20.80
2022-08-08T01:48:30.364Z,20.70
2022-08-08T01:51:29.844Z,20.70
2022-08-08T01:55:19.036Z,20.60
2022-08-08T01:58:04.113Z,20.60
2022-08-08T02:00:34.997Z,20.50
2022-08-08T02:03:57.039Z,20.50
2022-08-08T02:07:01.846Z,20.40
2022-08-08T02:10:03.689Z,20.40
2022-08-08T02:12:56.261Z,20.30
2022-08-08T02:15:55.330Z,20.30
2022-08-08T02:18:46.674Z,20.30
2022-08-08T02:22:03.767Z,20.30
2022-08-08T02:24:44.296Z,20.30
2022-08-08T02:27:21.543Z,20.30
2022-08-08T02:29:57.094Z,20.20
2022-08-08T02:32:40.256Z,20.20
2022-08-08T02:36:03.396Z,20.20
2022-08-08T02:38:54.107Z,20.20
2022-08-08T02:41:58.707Z,20.20
2022-08-08T02:44:56.763Z,20.20
2022-08-08T02:48:01.929Z,20.10
2022-08-08T02:51:07.167Z,20.10
2022-08-08T02:53:56.832Z,20.10
2022-08-08T02:56:53.973Z,20.10
2022-08-08T02:59:57.270Z,20.00
2022-08-08T03:02:39.164Z,19.90
2022-08-08T03:05:53.368Z,19.90
2022-08-08T03:08:41.112Z,19.90
2022-08-08T03:12:01.439Z,19.90
2022-08-08T03:16:01.152Z,19.80
2022-08-08T03:17:59.705Z,19.80
2022-08-08T03:20:51.213Z,19.70
2022-08-08T03:23:19.883Z,19.70
2022-08-08T03:25:50.193Z,19.70
2022-08-08T03:28:42.454Z,19.70
2022-08-08T03:31:28.206Z,19.70
2022-08-08T03:34:04.855Z,19.70
2022-08-08T03:36:31.774Z,19.70
2022-08-08T03:39:14.719Z,19.70
2022-08-08T03:42:28.528Z,19.70
2022-08-08T03:44:35.911Z,19.60
2022-08-08T03:47:13.959Z,19.60
2022-08-08T03:49:58.379Z,19.60
2022-08-08T03:52:31.575Z,19.60
2022-08-08T03:55:09.763Z,19.60
2022-08-08T03:58:35.798Z,19.60
2022-08-08T04:00:26.999Z,19.60
2022-08-08T04:02:58.895Z,19.60
2022-08-08T04:05:35.299Z,19.50
2022-08-08T04:08:04.365Z,19.50
2022-08-08T04:10:35.178Z,19.30
2022-08-08T04:13:03.747Z,19.30
2022-08-08T04:15:55.104Z,19.20
2022-08-08T04:18:31.290Z,19.20
2022-08-08T04:20:58.560Z,19.20
2022-08-08T04:23:25.447Z,19.20
2022-08-08T04:26:05.310Z,19.20
2022-08-08T04:28:40.506Z,19.20
2022-08-08T04:31:09.283Z,19.30
2022-08-08T04:33:41.653Z,19.30
2022-08-08T04:36:09.121Z,19.20
2022-08-08T04:38:37.507Z,19.30
2022-08-08T04:41:09.443Z,19.30
2022-08-08T04:43:45.334Z,19.30
2022-08-08T04:46:14.669Z,19.30
2022-08-08T04:48:42.091Z,19.30
2022-08-08T04:51:09.379Z,19.30
2022-08-08T04:54:37.137Z,19.30
2022-08-08T04:56:23.860Z,19.40
2022-08-08T04:58:51.132Z,19.40
2022-08-08T05:01:18.282Z,19.40
2022-08-08T05:04:10.695Z,19.50
2022-08-08T05:06:32.493Z,19.50
2022-08-08T05:09:02.348Z,19.50
2022-08-08T05:11:38.662Z,19.50
2022-08-08T05:14:07.160Z,19.60
2022-08-08T05:16:52.824Z,19.60
2022-08-08T05:20:09.579Z,19.60
2022-08-08T05:22:09.903Z,19.60
2022-08-08T05:24:38.568Z,19.70
2022-08-08T05:27:06.345Z,19.70
2022-08-08T05:29:35.987Z,19.70
2022-08-08T05:32:07.282Z,19.70
2022-08-08T05:34:40.841Z,19.80
2022-08-08T05:37:17.357Z,19.80
2022-08-08T05:39:53.750Z,19.80
2022-08-08T05:42:45.564Z,19.80
2022-08-08T05:45:25.149Z,19.90
2022-08-08T05:48:00.416Z,19.90
2022-08-08T05:50:33.521Z,19.90
2022-08-08T05:53:54.472Z,20.00
2022-08-08T05:56:07.621Z,20.10
2022-08-08T05:58:57.020Z,20.20
2022-08-08T06:01:52.679Z,20.20
2022-08-08T06:04:22.714Z,20.30
2022-08-08T06:07:00.070Z,20.40
2022-08-08T06:09:58.519Z,20.40
2022-08-08T06:12:30.198Z,20.50
2022-08-08T06:15:03.377Z,20.60
2022-08-08T06:18:18.320Z,20.70
2022-08-08T06:20:26.241Z,20.70
2022-08-08T06:22:53.858Z,20.80
2022-08-08T06:25:33.265Z,20.90
2022-08-08T06:28:18.116Z,21.00
2022-08-08T06:30:48.945Z,21.10
2022-08-08T06:33:17.394Z,21.20
2022-08-08T06:36:09.966Z,21.30
2022-08-08T06:38:39.484Z,21.40
2022-08-08T06:41:13.508Z,21.40
2022-08-08T06:43:47.751Z,21.60
2022-08-08T06:46:24.238Z,21.70
2022-08-08T06:48:51.278Z,21.80
2022-08-08T06:51:20.767Z,22.00
2022-08-08T06:53:50.952Z,22.00
2022-08-08T06:56:24.928Z,22.10
2022-08-08T06:58:53.202Z,22.20
2022-08-08T07:02:27.323Z,22.20
2022-08-08T07:04:38.082Z,22.30
2022-08-08T07:07:12.346Z,22.60
2022-08-08T07:09:59.718Z,22.80
2022-08-08T07:12:43.323Z,23.00
2022-08-08T07:15:32.558Z,23.30
2022-08-08T07:18:36.125Z,23.60
2022-08-08T07:21:04.899Z,23.90
2022-08-08T07:24:02.209Z,24.20
2022-08-08T07:26:35.525Z,24.50
2022-08-08T07:29:05.313Z,24.70
2022-08-08T07:31:35.377Z,24.80
2022-08-08T07:34:08.891Z,25.00
2022-08-08T07:36:41.929Z,25.10
2022-08-08T07:39:29.428Z,25.30
2022-08-08T07:42:04.233Z,25.40
2022-08-08T07:44:37.749Z,25.60
2022-08-08T07:47:08.931Z,25.70
2022-08-08T07:49:40.043Z,25.90
2022-08-08T07:52:13.275Z,26.00
2022-08-08T07:55:04.094Z,26.10
2022-08-08T07:58:03.836Z,26.20
2022-08-08T08:00:44.029Z,26.30
2022-08-08T08:03:20.410Z,26.40
2022-08-08T08:05:54.225Z,26.50
2022-08-08T08:08:27.521Z,26.50
2022-08-08T08:10:59.703Z,26.60
2022-08-08T08:13:42.212Z,26.60
2022-08-08T08:16:27.765Z,26.60
2022-08-08T08:19:01.895Z,26.60
2022-08-08T08:21:44.151Z,26.70
2022-08-08T08:24:18.725Z,26.70
2022-08-08T08:26:46.835Z,26.80
2022-08-08T08:29:19.777Z,26.80
2022-08-08T08:31:54.121Z,26.80
2022-08-08T08:34:31.663Z,26.90
2022-08-08T08:36:59.736Z,26.90
2022-08-08T08:39:39.326Z,27.00
2022-08-08T08:42:19.433Z,27.00
2022-08-08T08:45:01.203Z,27.20
2022-08-08T08:47:44.983Z,27.20
2022-08-08T08:50:31.642Z,27.20
2022-08-08T08:53:04.961Z,27.10
2022-08-08T08:55:50.064Z,27.20
2022-08-08T08:58:49.949Z,27.20
2022-08-08T09:01:20.371Z,27.20
2022-08-08T09:03:50.979Z,27.20
2022-08-08T09:06:31.944Z,27.10
2022-08-08T09:09:26.521Z,27.10
2022-08-08T09:12:06.315Z,27.10
2022-08-08T09:14:35.100Z,27.10
2022-08-08T09:17:11.574Z,27.10
2022-08-08T09:21:57.972Z,27.10
2022-08-08T09:22:28.798Z,27.10
2022-08-08T09:24:56.729Z,27.10
2022-08-08T09:27:55.725Z,27.00
2022-08-08T09:30:17.339Z,27.10
2022-08-08T09:33:53.913Z,27.10
2022-08-08T09:35:49.729Z,27.10
2022-08-08T09:38:53.074Z,27.10
2022-08-08T09:41:33.637Z,27.10
2022-08-08T09:44:33.702Z,27.10
2022-08-08T09:48:02.472Z,27.10
2022-08-08T09:50:04.743Z,27.10
2022-08-08T09:53:05.720Z,27.00
2022-08-08T09:55:51.542Z,26.90
2022-08-08T09:58:27.795Z,26.90
2022-08-08T10:01:14.412Z,26.90
2022-08-08T10:04:02.166Z,26.80
2022-08-08T10:06:32.566Z,26.80
2022-08-08T10:09:02.967Z,26.80
2022-08-08T10:12:26.715Z,26.90
2022-08-08T10:14:34.888Z,26.90
2022-08-08T10:17:56.000Z,27.00
2022-08-08T10:20:03.904Z,27.00
2022-08-08T10:22:33.689Z,27.10
2022-08-08T10:25:15.736Z,27.10
2022-08-08T10:27:43.758Z,27.10
2022-08-08T10:30:16.200Z,27.10
2022-08-08T10:33:00.456Z,27.10
2022-08-08T10:36:07.700Z,27.00
2022-08-08T10:38:17.977Z,27.10
2022-08-08T10:40:51.227Z,27.00
2022-08-08T10:43:20.076Z,27.10
2022-08-08T10:45:56.571Z,27.10
2022-08-08T10:48:55.857Z,27.00
2022-08-08T10:51:31.468Z,27.00
2022-08-08T10:54:08.278Z,27.00
2022-08-08T10:56:43.194Z,26.90
2022-08-08T10:59:14.149Z,26.90
2022-08-08T11:01:54.376Z,27.00
2022-08-08T11:04:29.451Z,27.10
2022-08-08T11:07:00.766Z,27.00
2022-08-08T11:09:32.207Z,27.00
2022-08-08T11:12:13.261Z,26.90
2022-08-08T11:14:59.930Z,27.00
2022-08-08T11:18:01.089Z,27.20
2022-08-08T11:20:28.061Z,27.10
2022-08-08T11:23:05.797Z,27.20
2022-08-08T11:25:52.928Z,27.20
2022-08-08T11:28:26.043Z,27.20
2022-08-08T11:30:59.964Z,27.20
2022-08-08T11:33:53.117Z,27.20
2022-08-08T11:36:15.782Z,27.10
2022-08-08T11:38:55.109Z,27.20
2022-08-08T11:41:24.745Z,27.20
2022-08-08T11:43:57.993Z,27.30
2022-08-08T11:46:28.199Z,27.30
2022-08-08T11:48:59.590Z,27.30
2022-08-08T11:51:29.829Z,27.20
2022-08-08T11:54:04.671Z,27.20
2022-08-08T11:56:41.970Z,27.20
2022-08-08T11:59:11.213Z,27.30
2022-08-08T12:01:39.078Z,27.40
2022-08-08T12:04:08.486Z,27.30
2022-08-08T12:06:35.630Z,27.30
2022-08-08T12:09:10.007Z,27.30
2022-08-08T12:11:45.910Z,27.30
2022-08-08T12:14:23.325Z,27.30
2022-08-08T12:16:53.345Z,27.30
2022-08-08T12:19:22.010Z,27.30
2022-08-08T12:22:12.827Z,27.40
2022-08-08T12:24:51.417Z,27.50
2022-08-08T12:27:26.548Z,27.50
2022-08-08T12:30:01.741Z,27.50
2022-08-08T12:32:31.063Z,27.50
2022-08-08T12:35:17.903Z,27.40
2022-08-08T12:38:00.969Z,27.40
2022-08-08T12:40:57.267Z,27.40
2022-08-08T12:43:43.394Z,27.50
2022-08-08T12:46:19.436Z,27.50
2022-08-08T12:49:25.373Z,27.50
2022-08-08T12:51:59.118Z,27.60
2022-08-08T12:54:35.851Z,27.50
2022-08-08T12:57:17.468Z,27.60
2022-08-08T13:00:04.877Z,27.70
2022-08-08T13:02:51.238Z,27.70
2022-08-08T13:05:26.888Z,27.60
2022-08-08T13:08:16.926Z,27.60
2022-08-08T13:10:56.728Z,27.70
2022-08-08T13:13:36.759Z,27.70
2022-08-08T13:16:21.762Z,27.70
2022-08-08T13:18:58.219Z,27.70
2022-08-08T13:21:48.803Z,27.70
2022-08-08T13:24:18.751Z,27.70
2022-08-08T13:27:15.479Z,27.70
2022-08-08T13:29:53.792Z,27.70
2022-08-08T13:32:23.785Z,27.80
2022-08-08T13:34:57.914Z,27.80
2022-08-08T13:37:27.993Z,27.80
2022-08-08T13:40:26.732Z,27.80
2022-08-08T13:42:56.066Z,27.90
2022-08-08T13:45:24.959Z,27.90
2022-08-08T13:47:59.308Z,27.90
2022-08-08T13:50:37.006Z,27.90
2022-08-08T13:53:23.052Z,28.00
2022-08-08T13:56:05.384Z,27.90
2022-08-08T13:58:33.289Z,28.00
2022-08-08T14:01:12.127Z,28.00
2022-08-08T14:03:52.650Z,28.00
2022-08-08T14:06:34.048Z,28.00
2022-08-08T14:09:25.211Z,28.10
2022-08-08T14:11:49.483Z,28.10
2022-08-08T14:14:21.147Z,28.10
2022-08-08T14:16:53.206Z,28.20
2022-08-08T14:19:57.449Z,28.30
2022-08-08T14:22:26.587Z,28.40
2022-08-08T14:24:59.991Z,28.40
2022-08-08T14:27:29.614Z,28.40
2022-08-08T14:30:18.422Z,28.40
2022-08-08T14:32:53.082Z,28.40
2022-08-08T14:35:24.737Z,28.40
2022-08-08T14:38:09.580Z,28.40
2022-08-08T14:40:53.526Z,28.40
2022-08-08T14:44:01.758Z,28.40
2022-08-08T14:46:16.839Z,28.40
2022-08-08T14:48:57.030Z,28.40
2022-08-08T14:51:47.204Z,28.30
2022-08-08T14:54:16.209Z,28.30
2022-08-08T14:56:55.497Z,28.30
2022-08-08T14:59:44.015Z,28.30
2022-08-08T15:02:15.258Z,28.30
2022-08-08T15:04:42.899Z,28.40
2022-08-08T15:07:24.126Z,28.40
2022-08-08T15:09:56.820Z,28.40
2022-08-08T15:12:27.589Z,28.50
2022-08-08T15:14:55.592Z,28.40
2022-08-08T15:17:23.190Z,28.40
2022-08-08T15:19:50.827Z,28.40
2022-08-08T15:22:23.757Z,28.40
2022-08-08T15:24:51.297Z,28.40
2022-08-08T15:28:03.840Z,28.40
2022-08-08T15:30:12.522Z,28.40
2022-08-08T15:32:43.263Z,28.50
2022-08-08T15:35:10.856Z,28.50
2022-08-08T15:37:39.129Z,28.50
2022-08-08T15:40:11.256Z,28.60
2022-08-08T15:42:44.625Z,28.60
2022-08-08T15:45:14.515Z,28.50
2022-08-08T15:48:05.452Z,28.50
2022-08-08T15:50:48.409Z,28.50
2022-08-08T15:53:17.884Z,28.40
2022-08-08T15:55:45.009Z,28.40
2022-08-08T15:58:14.455Z,28.40
2022-08-08T16:00:50.584Z,28.30
2022-08-08T16:03:17.732Z,28.30
2022-08-08T16:06:01.024Z,28.30
2022-08-08T16:08:29.337Z,28.30
2022-08-08T16:13:15.271Z,28.30
2022-08-08T16:13:45.068Z,28.30
2022-08-08T16:16:17.981Z,28.30
2022-08-08T16:18:57.338Z,28.30
2022-08-08T16:21:27.607Z,28.20
2022-08-08T16:23:56.116Z,28.10
2022-08-08T16:26:33.777Z,28.20
2022-08-08T16:29:03.419Z,28.20
2022-08-08T16:31:37.233Z,28.10
2022-08-08T16:34:04.502Z,28.10
2022-08-08T16:36:33.314Z,28.10
2022-08-08T16:39:01.683Z,28.10
2022-08-08T16:41:51.064Z,28.10
2022-08-08T16:44:27.911Z,28.10
2022-08-08T16:47:40.162Z,28.20
2022-08-08T16:50:13.992Z,28.20
2022-08-08T16:55:06.021Z,28.20
2022-08-08T16:55:55.956Z,28.30
2022-08-08T16:58:25.394Z,28.20
2022-08-08T17:00:53.043Z,28.10
2022-08-08T17:03:25.499Z,28.20
2022-08-08T17:06:39.639Z,28.20
2022-08-08T17:08:55.628Z,28.30
2022-08-08T17:11:28.275Z,28.30
2022-08-08T17:14:06.111Z,28.20
2022-08-08T17:16:51.858Z,28.30
2022-08-08T17:19:25.129Z,28.20
2022-08-08T17:21:52.139Z,28.20
2022-08-08T17:24:28.302Z,28.20
2022-08-08T17:26:58.024Z,28.10
2022-08-08T17:29:33.948Z,28.10
2022-08-08T17:32:02.256Z,28.00
2022-08-08T17:34:48.383Z,28.00
2022-08-08T17:37:16.343Z,28.00
2022-08-08T17:40:10.653Z,28.00
2022-08-08T17:42:33.165Z,27.90
2022-08-08T17:45:00.012Z,27.90
2022-08-08T17:47:40.413Z,27.80
2022-08-08T17:50:09.671Z,27.80
2022-08-08T17:52:38.247Z,27.80
2022-08-08T17:56:03.318Z,27.80
2022-08-08T17:57:54.243Z,27.80
2022-08-08T18:00:21.464Z,27.80
2022-08-08T18:03:08.512Z,26.90
2022-08-08T18:05:48.033Z,27.70
2022-08-08T18:08:24.915Z,27.70
2022-08-08T18:11:11.663Z,27.60
2022-08-08T18:13:42.510Z,27.50
2022-08-08T18:16:09.968Z,27.60
2022-08-08T18:18:42.796Z,27.60
2022-08-08T18:21:35.571Z,27.50
2022-08-08T18:23:59.349Z,27.50
2022-08-08T18:26:28.171Z,27.40
2022-08-08T18:28:56.554Z,27.40
2022-08-08T18:31:24.911Z,27.40
2022-08-08T18:34:12.129Z,27.30
2022-08-08T18:36:41.488Z,27.30
2022-08-08T18:39:16.318Z,27.30
2022-08-08T18:42:02.810Z,27.20
2022-08-08T18:44:34.642Z,27.20
2022-08-08T18:47:02.434Z,27.20
2022-08-08T18:49:32.575Z,27.10
2022-08-08T18:52:08.943Z,27.20
2022-08-08T18:54:46.075Z,27.20
2022-08-08T18:57:27.331Z,27.20
2022-08-08T18:59:54.245Z,27.10
2022-08-08T19:02:27.528Z,27.10
2022-08-08T19:04:56.204Z,27.10
2022-08-08T19:07:25.746Z,27.00
2022-08-08T19:10:14.347Z,27.00
2022-08-08T19:12:44.838Z,26.90
2022-08-08T19:15:23.548Z,26.90
2022-08-08T19:18:33.471Z,26.90
2022-08-08T19:20:39.947Z,26.80
2022-08-08T19:23:10.326Z,26.80
2022-08-08T19:26:02.208Z,26.70
2022-08-08T19:28:24.926Z,26.70
2022-08-08T19:31:03.970Z,26.70
2022-08-08T19:33:39.455Z,26.60
2022-08-08T19:36:07.990Z,26.60
2022-08-08T19:38:35.990Z,26.50
2022-08-08T19:41:04.301Z,26.50
2022-08-08T19:43:32.695Z,26.40
2022-08-08T19:46:22.566Z,26.40
2022-08-08T19:48:49.468Z,26.40
2022-08-08T19:51:16.764Z,26.40
2022-08-08T19:54:00.835Z,26.30
2022-08-08T19:56:40.827Z,26.30
2022-08-08T19:59:12.918Z,26.30
2022-08-08T20:02:02.194Z,26.20
2022-08-08T20:04:27.963Z,26.10
2022-08-08T20:06:56.962Z,26.10
2022-08-08T20:09:24.961Z,26.00
2022-08-08T20:11:52.839Z,26.00
2022-08-08T20:14:34.196Z,25.90
2022-08-08T20:17:03.749Z,25.80
2022-08-08T20:19:34.485Z,25.80
2022-08-08T20:22:12.900Z,25.70
2022-08-08T20:24:48.401Z,25.60
2022-08-08T20:27:20.472Z,25.50
2022-08-08T20:29:55.287Z,25.50
2022-08-08T20:32:26.855Z,25.50
2022-08-08T20:35:00.987Z,25.40
2022-08-08T20:37:52.753Z,25.40
2022-08-08T20:40:17.331Z,25.30
2022-08-08T20:42:55.015Z,25.30
2022-08-08T20:45:54.296Z,25.20
2022-08-08T20:48:09.866Z,25.10
2022-08-08T20:50:37.627Z,25.10
2022-08-08T20:53:16.534Z,25.10
2022-08-08T20:55:51.919Z,25.00
2022-08-08T20:58:23.048Z,25.00
2022-08-08T21:00:50.394Z,24.90
2022-08-08T21:03:17.396Z,24.80
2022-08-08T21:05:58.594Z,24.70
2022-08-08T21:08:37.138Z,24.70
2022-08-08T21:11:15.876Z,24.60
2022-08-08T21:13:43.610Z,24.50
2022-08-08T21:16:20.909Z,24.50
2022-08-08T21:18:57.739Z,24.40
2022-08-08T21:21:39.345Z,24.40
2022-08-08T21:24:15.956Z,24.40
2022-08-08T21:26:53.943Z,24.40
2022-08-08T21:29:21.675Z,24.40
2022-08-08T21:32:08.112Z,24.40
2022-08-08T21:34:49.644Z,24.40
2022-08-08T21:37:19.060Z,24.30
2022-08-08T21:40:05.523Z,24.30
2022-08-08T21:42:34.986Z,24.20
2022-08-08T21:45:44.159Z,24.20
2022-08-08T21:48:06.283Z,24.10
2022-08-08T21:50:37.967Z,24.20
2022-08-08T21:54:30.734Z,24.10
2022-08-08T21:56:19.953Z,24.10
2022-08-08T21:58:39.058Z,24.00
2022-08-08T22:01:28.181Z,23.80
2022-08-08T22:03:58.215Z,23.70
2022-08-08T22:06:31.085Z,23.70
2022-08-08T22:09:00.094Z,23.70
2022-08-08T22:12:02.163Z,23.70
2022-08-08T22:14:17.767Z,23.70
2022-08-08T22:16:44.612Z,23.70
2022-08-08T22:19:15.606Z,23.70
2022-08-08T22:21:43.394Z,23.60
2022-08-08T22:24:12.413Z,23.60
2022-08-08T22:27:01.501Z,23.60
2022-08-08T22:30:01.018Z,23.60
2022-08-08T22:32:12.865Z,23.50
2022-08-08T22:34:40.226Z,23.50
2022-08-08T22:37:27.631Z,23.50
2022-08-08T22:40:01.416Z,23.40
2022-08-08T22:42:31.783Z,23.30
2022-08-08T22:45:01.742Z,23.20
2022-08-08T22:47:34.536Z,23.20
2022-08-08T22:50:25.027Z,23.10
2022-08-08T22:53:22.577Z,23.20
2022-08-08T22:55:57.639Z,23.10
2022-08-08T22:58:27.175Z,23.10
2022-08-08T23:00:59.699Z,23.20
2022-08-08T23:03:34.178Z,23.10
2022-08-08T23:06:16.191Z,23.10
2022-08-08T23:08:54.227Z,23.00
2022-08-08T23:11:31.464Z,23.00
2022-08-08T23:14:15.119Z,22.90
2022-08-08T23:16:45.661Z,22.90
2022-08-08T23:19:21.459Z,22.80
2022-08-08T23:21:48.755Z,22.80
2022-08-08T23:24:22.734Z,22.80
2022-08-08T23:26:55.810Z,22.80
2022-08-08T23:29:24.962Z,22.80
2022-08-08T23:31:52.305Z,22.70
2022-08-08T23:34:19.978Z,22.70
2022-08-08T23:36:48.264Z,22.70
2022-08-08T23:39:15.889Z,22.70
2022-08-08T23:41:46.899Z,22.60
2022-08-08T23:44:18.735Z,22.50
2022-08-08T23:49:07.323Z,22.50
2022-08-08T23:49:36.438Z,22.50
2022-08-08T23:52:08.117Z,22.50
2022-08-08T23:54:41.924Z,22.40
2022-08-08T23:57:27.735Z,22.50
